createdAt,value
2018-09-18T00:01:11.844Z,3.53
2018-09-18T00:03:40.467Z,3.40
2018-09-18T00:06:08.873Z,5.17
2018-09-18T00:08:37.742Z,3.97
2018-09-18T00:11:06.248Z,3.77
2018-09-18T00:13:34.833Z,4.17
2018-09-18T00:16:03.749Z,3.70
2018-09-18T00:18:32.715Z,3.90
2018-09-18T00:21:01.357Z,4.40
2018-09-18T00:23:30.210Z,3.80
2018-09-18T00:25:58.798Z,4.83
2018-09-18T00:28:27.848Z,4.77
2018-09-18T00:30:56.370Z,3.53
2018-09-18T00:33:24.885Z,4.20
2018-09-18T00:35:53.657Z,3.70
2018-09-18T00:38:22.146Z,3.90
2018-09-18T00:40:50.741Z,5.90
2018-09-18T00:43:19.581Z,3.53
2018-09-18T00:45:48.455Z,4.00
2018-09-18T00:48:17.078Z,3.63
2018-09-18T00:50:45.538Z,4.20
2018-09-18T00:53:14.512Z,4.17
2018-09-18T00:55:42.997Z,4.47
2018-09-18T00:58:11.533Z,5.13
2018-09-18T01:00:40.087Z,3.90
2018-09-18T01:03:08.711Z,4.83
2018-09-18T01:05:37.354Z,4.83
2018-09-18T01:08:05.948Z,3.90
2018-09-18T01:10:34.442Z,4.50
2018-09-18T01:13:02.929Z,4.83
2018-09-18T01:15:31.520Z,3.40
2018-09-18T01:18:00.648Z,4.00
2018-09-18T01:20:29.215Z,4.33
2018-09-18T01:22:57.817Z,4.23
2018-09-18T01:25:26.263Z,5.37
2018-09-18T01:27:54.973Z,4.57
2018-09-18T01:30:23.911Z,3.43
2018-09-18T01:32:52.560Z,4.60
2018-09-18T01:35:21.058Z,4.10
2018-09-18T01:37:49.815Z,3.90
2018-09-18T01:40:18.697Z,3.97
2018-09-18T01:42:47.097Z,5.47
2018-09-18T01:45:15.553Z,4.87
2018-09-18T01:47:44.315Z,3.77
2018-09-18T01:50:13.008Z,4.97
2018-09-18T01:52:41.453Z,4.00
2018-09-18T01:55:10.165Z,3.83
2018-09-18T01:57:39.323Z,6.80
2018-09-18T02:00:07.853Z,4.30
2018-09-18T02:02:36.768Z,4.60
2018-09-18T02:05:05.402Z,4.80
2018-09-18T02:07:33.838Z,4.03
2018-09-18T02:10:02.569Z,4.73
2018-09-18T02:12:31.021Z,3.50
2018-09-18T02:14:59.500Z,6.57
2018-09-18T02:17:28.297Z,3.73
2018-09-18T02:19:57.026Z,4.03
2018-09-18T02:22:25.551Z,4.00
2018-09-18T02:24:54.007Z,4.80
2018-09-18T02:27:22.533Z,4.10
2018-09-18T02:29:50.936Z,4.10
2018-09-18T02:32:20.812Z,3.73
2018-09-18T02:34:49.254Z,5.20
2018-09-18T02:37:18.017Z,4.00
2018-09-18T02:39:46.812Z,4.17
2018-09-18T02:42:15.209Z,4.27
2018-09-18T02:44:44.091Z,4.60
2018-09-18T02:47:12.503Z,4.30
2018-09-18T02:49:40.935Z,3.97
2018-09-18T02:52:09.375Z,4.87
2018-09-18T02:54:37.806Z,4.27
2018-09-18T02:57:06.456Z,3.80
2018-09-18T02:59:34.855Z,4.27
2018-09-18T03:02:03.281Z,4.83
2018-09-18T03:04:32.233Z,4.03
2018-09-18T03:07:00.762Z,3.90
2018-09-18T03:09:29.509Z,4.07
2018-09-18T03:11:58.084Z,5.40
2018-09-18T03:14:26.493Z,4.93
2018-09-18T03:16:54.993Z,4.60
2018-09-18T03:19:23.547Z,8.80
2018-09-18T03:21:52.202Z,12.77
2018-09-18T03:24:20.796Z,4.67
2018-09-18T03:26:49.294Z,4.13
2018-09-18T03:29:17.813Z,4.40
2018-09-18T03:31:46.279Z,4.87
2018-09-18T03:34:14.784Z,4.67
2018-09-18T03:36:43.301Z,4.97
2018-09-18T03:39:11.698Z,6.03
2018-09-18T03:41:40.146Z,9.90
2018-09-18T03:44:08.616Z,6.40
2018-09-18T03:46:37.529Z,7.27
2018-09-18T03:49:05.925Z,6.37
2018-09-18T03:51:34.380Z,4.87
2018-09-18T03:54:02.871Z,4.10
2018-09-18T03:56:31.297Z,7.83
2018-09-18T03:58:59.778Z,5.40
2018-09-18T04:01:28.225Z,4.63
2018-09-18T04:03:56.670Z,4.37
2018-09-18T04:06:25.224Z,4.40
2018-09-18T04:08:53.646Z,4.67
2018-09-18T04:11:22.065Z,5.47
2018-09-18T04:13:50.610Z,4.80
2018-09-18T04:16:19.609Z,5.07
2018-09-18T04:18:48.065Z,4.20
2018-09-18T04:21:16.509Z,4.37
2018-09-18T04:23:45.210Z,6.30
2018-09-18T04:26:13.646Z,4.40
2018-09-18T04:28:42.054Z,4.20
2018-09-18T04:31:10.816Z,5.53
2018-09-18T04:33:39.259Z,6.87
2018-09-18T04:36:07.895Z,7.03
2018-09-18T04:38:36.446Z,11.07
2018-09-18T04:41:04.849Z,12.57
2018-09-18T04:43:33.289Z,18.37
2018-09-18T04:46:01.747Z,28.37
2018-09-18T04:48:30.118Z,17.43
2018-09-18T04:50:58.871Z,23.30
2018-09-18T04:53:27.685Z,28.33
2018-09-18T04:55:56.214Z,14.13
2018-09-18T04:58:24.809Z,26.37
2018-09-18T05:00:53.605Z,21.20
2018-09-18T05:03:22.049Z,19.00
2018-09-18T05:05:50.462Z,13.40
2018-09-18T05:08:18.903Z,10.87
2018-09-18T05:10:47.325Z,13.97
2018-09-18T05:13:16.103Z,15.57
2018-09-18T05:15:44.709Z,12.90
2018-09-18T05:18:13.153Z,12.77
2018-09-18T05:20:41.588Z,9.57
2018-09-18T05:23:10.217Z,9.67
2018-09-18T05:25:38.860Z,10.07
2018-09-18T05:28:07.268Z,9.83
2018-09-18T05:30:36.179Z,8.73
2018-09-18T05:33:04.657Z,12.33
2018-09-18T05:35:33.162Z,8.47
2018-09-18T05:38:01.826Z,9.20
2018-09-18T05:40:30.329Z,8.50
2018-09-18T05:42:58.863Z,10.83
2018-09-18T05:45:27.281Z,5.47
2018-09-18T05:47:55.697Z,6.70
2018-09-18T05:50:24.104Z,4.90
2018-09-18T05:52:52.966Z,8.23
2018-09-18T05:55:21.474Z,9.27
2018-09-18T05:57:50.118Z,6.00
2018-09-18T06:00:18.573Z,6.63
2018-09-18T06:02:47.057Z,5.40
2018-09-18T06:05:16.295Z,9.50
2018-09-18T06:07:44.933Z,7.30
2018-09-18T06:10:13.533Z,6.47
2018-09-18T06:12:42.006Z,7.20
2018-09-18T06:15:10.442Z,5.53
2018-09-18T06:17:38.891Z,6.23
2018-09-18T06:20:07.413Z,7.53
2018-09-18T06:22:40.142Z,5.30
2018-09-18T06:25:08.741Z,6.53
2018-09-18T06:27:37.390Z,5.63
2018-09-18T06:30:06.502Z,6.30
2018-09-18T06:32:35.276Z,6.00
2018-09-18T06:35:03.908Z,8.00
2018-09-18T06:37:32.413Z,5.93
2018-09-18T06:40:01.034Z,6.20
2018-09-18T06:42:29.649Z,13.50
2018-09-18T06:44:58.189Z,6.00
2018-09-18T06:47:26.834Z,9.67
2018-09-18T06:49:55.510Z,5.53
2018-09-18T06:52:24.130Z,12.60
2018-09-18T06:54:52.828Z,11.00
2018-09-18T06:57:21.491Z,18.83
2018-09-18T06:59:50.197Z,15.03
2018-09-18T07:02:18.778Z,12.83
2018-09-18T07:04:47.498Z,14.67
2018-09-18T07:07:16.183Z,16.83
2018-09-18T07:09:44.723Z,24.70
2018-09-18T07:12:13.269Z,18.37
2018-09-18T07:14:41.862Z,13.60
2018-09-18T07:17:10.344Z,13.47
2018-09-18T07:19:39.506Z,7.80
2018-09-18T07:22:08.266Z,10.33
2018-09-18T07:24:36.981Z,9.77
2018-09-18T07:27:05.595Z,5.57
2018-09-18T07:29:34.326Z,6.30
2018-09-18T07:32:03.002Z,6.97
2018-09-18T07:34:31.619Z,7.07
2018-09-18T07:37:00.689Z,9.00
2018-09-18T07:39:29.786Z,10.97
2018-09-18T07:41:58.871Z,5.07
2018-09-18T07:44:27.857Z,6.77
2018-09-18T07:46:56.577Z,11.37
2018-09-18T07:49:25.105Z,7.53
2018-09-18T07:51:53.782Z,10.07
2018-09-18T07:54:22.422Z,6.00
2018-09-18T07:56:51.041Z,6.17
2018-09-18T07:59:19.813Z,4.03
2018-09-18T08:01:48.525Z,7.23
2018-09-18T08:04:17.237Z,4.80
2018-09-18T08:06:45.982Z,4.43
2018-09-18T08:09:14.818Z,4.63
2018-09-18T08:11:43.622Z,5.13
2018-09-18T08:14:12.451Z,7.43
2018-09-18T08:16:40.998Z,6.20
2018-09-18T08:19:09.823Z,6.10
2018-09-18T08:21:38.701Z,5.30
2018-09-18T08:24:07.543Z,7.50
2018-09-18T08:26:36.245Z,5.03
2018-09-18T08:29:04.835Z,6.20
2018-09-18T08:31:33.451Z,5.43
2018-09-18T08:34:02.260Z,4.77
2018-09-18T08:36:31.290Z,8.20
2018-09-18T08:39:00.019Z,7.03
2018-09-18T08:41:28.718Z,4.30
2018-09-18T08:43:57.358Z,4.17
2018-09-18T08:46:26.034Z,7.40
2018-09-18T08:48:55.661Z,7.17
2018-09-18T08:51:24.315Z,5.43
2018-09-18T08:53:53.271Z,4.93
2018-09-18T08:56:21.901Z,5.33
2018-09-18T08:58:50.908Z,5.67
2018-09-18T09:01:19.750Z,4.57
2018-09-18T09:03:48.512Z,7.57
2018-09-18T09:06:17.302Z,4.27
2018-09-18T09:08:45.909Z,7.00
2018-09-18T09:11:14.309Z,5.13
2018-09-18T09:13:42.734Z,5.60
2018-09-18T09:16:11.189Z,4.63
2018-09-18T09:18:40.085Z,6.83
2018-09-18T09:21:08.857Z,4.77
2018-09-18T09:23:37.255Z,5.67
2018-09-18T09:26:05.900Z,5.47
2018-09-18T09:28:34.549Z,4.67
2018-09-18T09:31:03.175Z,5.17
2018-09-18T09:33:31.735Z,8.30
2018-09-18T09:36:00.266Z,7.10
2018-09-18T09:38:28.955Z,5.13
2018-09-18T09:40:57.562Z,7.35
2018-09-18T09:43:26.279Z,7.27
2018-09-18T09:45:55.111Z,5.10
2018-09-18T09:48:23.643Z,4.50
2018-09-18T09:50:52.282Z,4.90
2018-09-18T09:53:20.817Z,4.47
2018-09-18T09:55:49.562Z,5.65
2018-09-18T09:58:18.167Z,5.07
2018-09-18T10:00:51.857Z,5.92
2018-09-18T10:03:20.389Z,6.62
2018-09-18T10:05:49.496Z,5.15
2018-09-18T10:08:18.005Z,5.28
2018-09-18T10:10:46.827Z,4.67
2018-09-18T10:13:15.432Z,4.70
2018-09-18T10:15:44.257Z,5.00
2018-09-18T10:18:12.836Z,5.25
2018-09-18T10:20:41.595Z,6.00
2018-09-18T10:23:10.220Z,5.67
2018-09-18T10:25:38.872Z,6.67
2018-09-18T10:28:07.521Z,5.67
2018-09-18T10:30:36.154Z,6.03
2018-09-18T10:33:04.946Z,6.87
2018-09-18T10:35:33.605Z,6.22
2018-09-18T10:38:02.273Z,8.33
2018-09-18T10:40:30.902Z,5.83
2018-09-18T10:42:59.665Z,6.15
2018-09-18T10:45:28.162Z,5.40
2018-09-18T10:47:56.736Z,5.35
2018-09-18T10:50:25.427Z,8.08
2018-09-18T10:52:54.207Z,8.98
2018-09-18T10:55:22.815Z,5.28
2018-09-18T10:57:51.357Z,6.92
2018-09-18T11:00:32.583Z,6.20
2018-09-18T11:03:01.153Z,5.62
2018-09-18T11:05:29.975Z,4.65
2018-09-18T11:07:58.767Z,5.42
2018-09-18T11:10:27.541Z,5.83
2018-09-18T11:12:56.202Z,4.42
2018-09-18T11:15:24.973Z,6.62
2018-09-18T11:17:53.554Z,5.95
2018-09-18T11:20:22.250Z,4.58
2018-09-18T11:22:50.995Z,4.53
2018-09-18T11:25:19.709Z,5.22
2018-09-18T11:27:48.487Z,4.05
2018-09-18T11:30:17.237Z,4.30
2018-09-18T11:32:46.014Z,4.22
2018-09-18T11:35:14.612Z,4.87
2018-09-18T11:37:43.203Z,4.92
2018-09-18T11:40:11.877Z,4.78
2018-09-18T11:42:40.574Z,3.92
2018-09-18T11:45:09.289Z,3.95
2018-09-18T11:47:38.047Z,4.65
2018-09-18T11:50:06.848Z,5.30
2018-09-18T11:52:35.586Z,3.87
2018-09-18T11:55:04.354Z,5.12
2018-09-18T11:57:32.988Z,3.50
2018-09-18T12:00:01.709Z,3.40
2018-09-18T12:02:30.762Z,5.17
2018-09-18T12:04:59.531Z,3.50
2018-09-18T12:07:28.038Z,4.85
2018-09-18T12:09:56.649Z,5.83
2018-09-18T12:12:25.346Z,5.40
2018-09-18T12:14:54.228Z,3.58
2018-09-18T12:17:22.791Z,4.35
2018-09-18T12:19:51.286Z,3.50
2018-09-18T12:22:19.998Z,3.62
2018-09-18T12:24:48.738Z,3.67
2018-09-18T12:27:17.699Z,3.95
2018-09-18T12:29:46.745Z,4.37
2018-09-18T12:32:15.571Z,3.33
2018-09-18T12:34:44.138Z,4.50
2018-09-18T12:37:12.921Z,4.40
2018-09-18T12:39:41.723Z,6.50
2018-09-18T12:42:10.488Z,3.67
2018-09-18T12:44:39.075Z,4.12
2018-09-18T12:47:27.349Z,6.60
2018-09-18T12:49:56.036Z,3.52
2018-09-18T12:52:25.016Z,3.85
2018-09-18T12:54:53.696Z,4.08
2018-09-18T12:57:22.503Z,4.00
2018-09-18T12:59:50.958Z,3.40
2018-09-18T13:02:19.717Z,3.30
2018-09-18T13:04:49.314Z,4.25
2018-09-18T13:07:17.929Z,4.00
2018-09-18T13:09:46.483Z,3.72
2018-09-18T13:12:15.077Z,4.15
2018-09-18T13:14:43.638Z,3.30
2018-09-18T13:17:12.200Z,8.43
2018-09-18T13:19:40.734Z,3.17
2018-09-18T13:22:09.351Z,4.80
2018-09-18T13:24:37.985Z,3.95
2018-09-18T13:27:06.726Z,4.92
2018-09-18T13:29:35.254Z,4.10
2018-09-18T13:32:03.835Z,3.55
2018-09-18T13:34:32.523Z,3.52
2018-09-18T13:37:01.084Z,3.85
2018-09-18T13:39:29.571Z,3.52
2018-09-18T13:41:58.183Z,4.00
2018-09-18T13:44:26.850Z,5.03
2018-09-18T13:46:55.441Z,4.70
2018-09-18T13:49:24.123Z,5.85
2018-09-18T13:51:52.867Z,3.25
2018-09-18T13:54:21.491Z,5.05
2018-09-18T13:56:50.349Z,3.98
2018-09-18T13:59:19.015Z,3.35
2018-09-18T14:01:47.748Z,5.30
2018-09-18T14:04:16.371Z,3.58
2018-09-18T14:06:44.955Z,3.65
2018-09-18T14:09:13.836Z,4.37
2018-09-18T14:11:42.672Z,3.60
2018-09-18T14:14:11.419Z,3.58
2018-09-18T14:16:39.948Z,3.40
2018-09-18T14:19:08.510Z,5.17
2018-09-18T14:21:37.210Z,3.55
2018-09-18T14:24:05.730Z,3.40
2018-09-18T14:26:34.559Z,3.67
2018-09-18T14:29:02.872Z,3.30
2018-09-18T14:31:32.087Z,3.50
2018-09-18T14:34:00.893Z,3.40
2018-09-18T14:36:29.731Z,3.72
2018-09-18T14:38:58.418Z,3.40
2018-09-18T14:41:27.054Z,5.75
2018-09-18T14:43:55.805Z,5.47
2018-09-18T14:46:24.262Z,4.58
2018-09-18T14:48:52.983Z,6.40
2018-09-18T14:51:21.694Z,7.03
2018-09-18T14:53:50.234Z,3.10
2018-09-18T14:56:19.198Z,3.00
2018-09-18T14:58:48.026Z,3.10
2018-09-18T15:01:16.675Z,2.58
2018-09-18T15:03:45.533Z,2.87
2018-09-18T15:06:14.048Z,2.60
2018-09-18T15:08:42.559Z,2.77
2018-09-18T15:11:11.444Z,2.90
2018-09-18T15:13:40.005Z,2.52
2018-09-18T15:16:08.523Z,2.60
2018-09-18T15:18:37.058Z,2.60
2018-09-18T15:21:05.610Z,1.80
2018-09-18T15:23:34.197Z,2.45
2018-09-18T15:26:02.668Z,2.15
2018-09-18T15:28:31.183Z,2.20
2018-09-18T15:30:59.736Z,2.25
2018-09-18T15:33:28.303Z,2.08
2018-09-18T15:35:56.873Z,3.15
2018-09-18T15:38:25.441Z,3.47
2018-09-18T15:40:53.861Z,2.75
2018-09-18T15:43:22.365Z,2.77
2018-09-18T15:45:50.848Z,2.40
2018-09-18T15:48:19.452Z,5.08
2018-09-18T15:50:48.219Z,2.80
2018-09-18T15:53:17.016Z,2.70
2018-09-18T15:55:45.801Z,3.65
2018-09-18T15:58:15.353Z,3.35
2018-09-18T16:00:44.123Z,3.20
2018-09-18T16:03:12.945Z,2.67
2018-09-18T16:05:41.866Z,2.72
2018-09-18T16:08:11.806Z,2.77
2018-09-18T16:10:40.752Z,2.55
2018-09-18T16:13:09.344Z,2.45
2018-09-18T16:15:37.956Z,2.42
2018-09-18T16:18:06.732Z,2.37
2018-09-18T16:20:37.590Z,2.70
2018-09-18T16:23:07.029Z,2.17
2018-09-18T16:25:36.175Z,2.45
2018-09-18T16:28:06.815Z,2.45
2018-09-18T16:30:35.777Z,1.87
2018-09-18T16:33:05.051Z,1.77
2018-09-18T16:35:33.684Z,3.55
2018-09-18T16:38:02.641Z,2.77
2018-09-18T16:40:31.451Z,4.17
2018-09-18T16:43:00.256Z,3.03
2018-09-18T16:45:28.986Z,3.22
2018-09-18T16:47:57.602Z,4.10
2018-09-18T16:50:26.352Z,2.58
2018-09-18T16:52:55.157Z,2.75
2018-09-18T16:55:24.210Z,3.50
2018-09-18T16:57:52.971Z,2.53
2018-09-18T17:00:22.638Z,2.77
2018-09-18T17:02:51.333Z,3.60
2018-09-18T17:05:20.056Z,2.87
2018-09-18T17:07:52.484Z,2.77
2018-09-18T17:10:21.163Z,3.00
2018-09-18T17:12:50.498Z,2.80
2018-09-18T17:15:19.386Z,3.00
2018-09-18T17:17:48.001Z,3.03
2018-09-18T17:20:17.489Z,3.17
2018-09-18T17:22:45.984Z,4.07
2018-09-18T17:25:16.914Z,4.30
2018-09-18T17:27:46.733Z,3.73
2018-09-18T17:30:15.956Z,4.17
2018-09-18T17:32:45.049Z,2.40
2018-09-18T17:35:14.030Z,4.17
2018-09-18T17:37:42.866Z,2.97
2018-09-18T17:40:11.848Z,2.67
2018-09-18T17:42:41.235Z,2.77
2018-09-18T17:45:09.985Z,2.50
2018-09-18T17:47:38.606Z,2.83
2018-09-18T17:50:07.201Z,3.53
2018-09-18T17:52:35.730Z,2.20
2018-09-18T17:55:04.250Z,2.73
2018-09-18T17:57:32.894Z,3.90
2018-09-18T18:00:01.493Z,3.97
2018-09-18T18:02:30.340Z,2.33
2018-09-18T18:04:59.019Z,3.20
2018-09-18T18:07:30.121Z,2.60
2018-09-18T18:10:03.051Z,2.70
2018-09-18T18:12:34.090Z,1.97
2018-09-18T18:15:03.007Z,2.53
2018-09-18T18:17:31.538Z,2.50
2018-09-18T18:20:00.043Z,4.33
2018-09-18T18:22:28.525Z,2.33
2018-09-18T18:24:57.138Z,3.17
2018-09-18T18:27:25.757Z,3.50
2018-09-18T18:29:54.305Z,3.00
2018-09-18T18:32:22.780Z,2.60
2018-09-18T18:34:51.468Z,3.33
2018-09-18T18:37:19.934Z,2.67
2018-09-18T18:39:49.590Z,2.80
2018-09-18T18:42:18.029Z,3.07
2018-09-18T18:44:46.664Z,3.13
2018-09-18T18:47:15.517Z,2.97
2018-09-18T18:49:44.388Z,4.60
2018-09-18T18:52:15.121Z,5.20
2018-09-18T18:54:43.681Z,2.80
2018-09-18T18:57:12.400Z,3.10
2018-09-18T18:59:41.045Z,3.57
2018-09-18T19:02:09.772Z,3.73
2018-09-18T19:04:38.257Z,3.17
2018-09-18T19:07:07.166Z,4.13
2018-09-18T19:09:36.424Z,3.43
2018-09-18T19:12:05.305Z,5.63
2018-09-18T19:14:33.856Z,3.90
2018-09-18T19:17:02.315Z,3.80
2018-09-18T19:19:31.046Z,3.40
2018-09-18T19:21:59.635Z,3.57
2018-09-18T19:24:28.206Z,3.20
2018-09-18T19:26:56.875Z,3.97
2018-09-18T19:29:25.434Z,3.23
2018-09-18T19:31:54.940Z,3.17
2018-09-18T19:34:23.490Z,3.60
2018-09-18T19:36:52.269Z,3.33
2018-09-18T19:39:20.848Z,4.57
2018-09-18T19:41:49.418Z,4.37
2018-09-18T19:44:17.960Z,3.10
2018-09-18T19:46:46.670Z,4.37
2018-09-18T19:49:15.121Z,4.93
2018-09-18T19:51:43.828Z,4.20
2018-09-18T19:54:12.285Z,3.47
2018-09-18T19:56:40.952Z,3.70
2018-09-18T19:59:11.402Z,4.40
2018-09-18T20:01:40.375Z,3.73
2018-09-18T20:04:08.974Z,4.97
2018-09-18T20:06:37.637Z,3.77
2018-09-18T20:09:08.633Z,3.73
2018-09-18T20:11:37.112Z,5.83
2018-09-18T20:14:05.585Z,4.87
2018-09-18T20:16:34.088Z,5.93
2018-09-18T20:19:02.533Z,7.43
2018-09-18T20:21:31.421Z,5.57
2018-09-18T20:24:00.030Z,6.43
2018-09-18T20:26:28.821Z,4.17
2018-09-18T20:28:57.613Z,5.63
2018-09-18T20:31:26.230Z,5.83
2018-09-18T20:33:54.825Z,6.93
2018-09-18T20:36:23.452Z,5.33
2018-09-18T20:38:52.065Z,5.50
2018-09-18T20:41:20.570Z,5.93
2018-09-18T20:43:49.214Z,5.27
2018-09-18T20:46:17.769Z,4.77
2018-09-18T20:48:46.536Z,5.33
2018-09-18T20:51:15.098Z,4.53
2018-09-18T20:53:43.645Z,4.57
2018-09-18T20:56:12.193Z,3.50
2018-09-18T20:58:40.629Z,5.30
2018-09-18T21:01:09.139Z,4.80
2018-09-18T21:03:38.722Z,3.90
2018-09-18T21:06:07.241Z,5.47
2018-09-18T21:08:35.985Z,3.93
2018-09-18T21:11:04.646Z,5.27
2018-09-18T21:13:33.158Z,5.77
2018-09-18T21:16:01.681Z,6.63
2018-09-18T21:18:30.520Z,4.97
2018-09-18T21:20:59.764Z,5.63
2018-09-18T21:23:28.331Z,5.73
2018-09-18T21:26:05.740Z,5.53
2018-09-18T21:28:34.438Z,5.73
2018-09-18T21:31:03.063Z,5.63
2018-09-18T21:33:31.743Z,8.37
2018-09-18T21:36:00.837Z,8.00
2018-09-18T21:38:29.710Z,7.47
2018-09-18T21:40:58.318Z,4.30
2018-09-18T21:43:27.448Z,7.33
2018-09-18T21:45:56.114Z,4.87
2018-09-18T21:48:24.671Z,5.13
2018-09-18T21:50:53.116Z,5.23
2018-09-18T21:53:21.639Z,6.87
2018-09-18T21:55:50.175Z,6.30
2018-09-18T21:58:18.681Z,3.63
2018-09-18T22:00:47.168Z,6.03
2018-09-18T22:03:16.386Z,4.90
2018-09-18T22:05:44.998Z,5.93
2018-09-18T22:08:13.740Z,6.53
2018-09-18T22:10:42.327Z,6.83
2018-09-18T22:13:11.257Z,10.37
2018-09-18T22:15:39.904Z,6.93
2018-09-18T22:18:08.482Z,5.10
2018-09-18T22:20:37.059Z,4.70
2018-09-18T22:23:05.641Z,5.33
2018-09-18T22:25:34.128Z,6.73
2018-09-18T22:28:02.754Z,5.70
2018-09-18T22:30:31.341Z,10.53
2018-09-18T22:32:59.868Z,5.70
2018-09-18T22:35:28.346Z,7.67
2018-09-18T22:37:56.891Z,6.57
2018-09-18T22:40:25.637Z,4.60
2018-09-18T22:42:54.271Z,5.90
2018-09-18T22:45:22.828Z,8.23
2018-09-18T22:47:51.441Z,5.47
2018-09-18T22:50:20.081Z,8.77
2018-09-18T22:52:48.637Z,7.57
2018-09-18T22:55:17.153Z,7.03
2018-09-18T22:57:45.742Z,5.13
2018-09-18T23:00:14.294Z,8.63
2018-09-18T23:02:42.981Z,6.23
2018-09-18T23:05:11.598Z,5.27
2018-09-18T23:10:34.061Z,5.97
2018-09-18T23:13:02.612Z,4.43
2018-09-18T23:15:31.119Z,6.33
2018-09-18T23:17:59.681Z,5.53
2018-09-18T23:20:28.187Z,6.73
2018-09-18T23:22:56.748Z,5.60
2018-09-18T23:25:25.263Z,4.90
2018-09-18T23:27:53.766Z,6.40
2018-09-18T23:30:22.550Z,4.60
2018-09-18T23:32:51.174Z,4.80
2018-09-18T23:35:19.726Z,4.60
2018-09-18T23:37:48.412Z,7.10
2018-09-18T23:40:16.977Z,4.47
2018-09-18T23:42:45.572Z,7.20
2018-09-18T23:45:14.198Z,7.07
2018-09-18T23:47:42.796Z,8.00
2018-09-18T23:50:11.354Z,6.60
2018-09-18T23:52:39.965Z,7.30
2018-09-18T23:55:08.592Z,6.37
2018-09-18T23:57:37.152Z,6.13
